New Castle, CO

10:59 PM MST on February 25, 2017 (GMT -0700)
MAIN ELK | | Change Station

Elev 6135 ft 39.65 °N, 107.56 °W | Updated 2 seconds ago

Partly Cloudy
Partly Cloudy
14.9 °F
Feels Like 15 °F
N
0.0
Wind Variable Wind from NE
Gusts 3.0 mph

Today
High -- | Low -- °F
--% Chance of Precip.
Yesterday
High -- | Low -- °F
Precip. -- in
Pressure 30.03 in
Visibility 10.0 miles
Clouds Clear
Windchill 15 °F
Dew Point 10 °F
Humidity 82%
Rainfall 0.00 in
Snow Depth Not available.
6:48 AM 5:58 PM
Waning Crescent, 0% visible
METAR KRIL 260553Z AUTO 23007KT 10SM CLR M04/M11 A2992 RMK AO2 SLP167 T10391111 10006 21039 53009 $
Pressure 30.03 in
Visibility 10.0 miles
Clouds Clear
Windchill 15 °F
Dew Point 10 °F
Humidity 82%
Rainfall 0.00 in
Snow Depth Not available.
6:48 AM 5:58 PM
Waning Crescent, 0% visible
METAR KRIL 260553Z AUTO 23007KT 10SM CLR M04/M11 A2992 RMK AO2 SLP167 T10391111 10006 21039 53009 $

Get Your Daily Forecast Email!

Thanks for signing up!

Be on the lookout for a verification email in your inbox.

You'll start receiving the daily forecast at 8 AM.

×

10-Day Weather Forecast

Almanac

Astronomy

Feb. 25, 2017 Rise Set
Actual Time
Civil Twilight
Nautical Twilight
Astronomical Twilight
Moon
Length of Visible Light
Length of Day
Tomorrow will be .
, % of the Moon is Illuminated

Today's Extremes

State Highs State Lows

Community

WunderPhotos

Upload Photos

1,962,540 photos uploaded!

WunderBlog® & News

Nearby

Air Quality

  Air Quality AQ Index Pollutant
Not available.

Snow Depth

Station Depth Elevation

Earthquake Activity

City Distance Mag. Time & Date
Minimum magnitude displayed is 2.5.

Coastal Water Temperatures

Place Temperature

Stations

Nearby Weather Stations

Station Location Temp. Windchill Dew Point Humidity Wind Precip. Elev Updated Type
                   

Watches & Warnings

There are currently no watches in effect.